Jamestown, Rhode Island
Current Conditions -  °F | °C
As of 4:53 PM on Saturday 20 Dec 2014 (Local Time) from KUUU Reporting Station
Overcast Overcast  
Wind Chill: 24°   Ceiling: 3700
Heat Index: 33°   Visibility: 10mi
Dew Point: 27°   Wind: 13mph
Humidity: 78%   Direction: 10°N
Pressure: 30.24"   Gusts: NA
Location:  41.5°N, 71.37°W
Report Text: KUUU 202153Z AUTO 01011KT 10SM OVC037 01/M03 A3024 RMK AO2 SLP242 T00061028
Loading
Personal Weather Stations






























Interactive Weather Map New forecast layout! Learn more

10-Day Weather Forecast

Advertisements
Track Severe Weather on mobile